Terminal Aerodrome Forecast
Issued by NWS

Home | Current Version | Previous Version | Text Only | Print | Product List | Glossary On
Versions: 1 2 3 4 5 6 7 8 9 10 11 12 13 14 15 16 17 18 19 20 21
332
FTUS43 KIND 232320
TAFBMG
TAF
KBMG 232320Z 2400/2424 30005KT P6SM VCTS BKN035CB
     FM240400 VRB03KT P6SM FEW250
     FM240900 00000KT 4SM BR FEW130
     FM241300 32004KT P6SM SCT140
      AMD LTD TO CLD VIS AND WIND 2401/2413=

USA.gov is the U.S. government's official web portal to all federal, state and local government web resources and services.